createdAt,value
2018-03-19T00:00:32.884Z,5.70
2018-03-19T00:01:32.887Z,5.60
2018-03-19T00:02:32.880Z,5.60
2018-03-19T00:03:32.880Z,5.00
2018-03-19T00:04:32.910Z,6.10
2018-03-19T00:05:32.876Z,5.30
2018-03-19T00:06:32.871Z,5.30
2018-03-19T00:07:32.872Z,5.20
2018-03-19T00:08:32.872Z,5.30
2018-03-19T00:09:32.868Z,4.90
2018-03-19T00:10:32.864Z,5.00
2018-03-19T00:11:32.864Z,5.40
2018-03-19T00:12:32.868Z,5.10
2018-03-19T00:13:32.868Z,5.20
2018-03-19T00:14:32.852Z,5.50
2018-03-19T00:15:32.853Z,5.70
2018-03-19T00:16:32.867Z,5.20
2018-03-19T00:17:32.853Z,5.40
2018-03-19T00:18:32.853Z,5.70
2018-03-19T00:19:32.851Z,5.40
2018-03-19T00:20:32.847Z,5.10
2018-03-19T00:21:32.839Z,5.30
2018-03-19T00:22:32.842Z,5.20
2018-03-19T00:23:32.839Z,5.50
2018-03-19T00:24:32.837Z,5.40
2018-03-19T00:25:32.841Z,4.80
2018-03-19T00:26:32.832Z,5.70
2018-03-19T00:27:32.826Z,5.20
2018-03-19T00:28:32.829Z,5.00
2018-03-19T00:29:32.832Z,5.10
2018-03-19T00:30:32.820Z,5.40
2018-03-19T00:31:32.823Z,5.90
2018-03-19T00:32:32.820Z,5.40
2018-03-19T00:33:32.818Z,5.70
2018-03-19T00:34:32.825Z,5.60
2018-03-19T00:35:33.385Z,5.70
2018-03-19T00:36:32.878Z,5.50
2018-03-19T00:37:32.815Z,5.40
2018-03-19T00:38:32.806Z,5.30
2018-03-19T00:39:32.802Z,5.40
2018-03-19T00:40:32.841Z,5.70
2018-03-19T00:41:32.790Z,5.00
2018-03-19T00:42:32.794Z,5.60
2018-03-19T00:43:32.790Z,5.30
2018-03-19T00:44:32.796Z,5.10
2018-03-19T00:45:32.782Z,5.40
2018-03-19T00:46:32.793Z,5.40
2018-03-19T00:47:32.789Z,6.00
2018-03-19T00:48:32.790Z,6.00
2018-03-19T00:49:32.771Z,5.50
2018-03-19T00:50:32.776Z,5.70
2018-03-19T00:51:32.781Z,5.50
2018-03-19T00:52:32.788Z,6.00
2018-03-19T00:53:32.768Z,6.00
2018-03-19T00:54:32.761Z,5.90
2018-03-19T00:55:32.770Z,5.40
2018-03-19T00:56:32.754Z,5.70
2018-03-19T00:57:32.759Z,5.70
2018-03-19T00:58:32.755Z,5.80
2018-03-19T00:59:32.759Z,5.80
2018-03-19T01:00:32.748Z,5.10
2018-03-19T01:01:32.746Z,5.20
2018-03-19T01:02:32.744Z,5.60
2018-03-19T01:03:32.738Z,5.60
2018-03-19T01:04:32.740Z,5.80
2018-03-19T01:05:32.735Z,5.70
2018-03-19T01:06:32.741Z,5.90
2018-03-19T01:07:32.733Z,6.00
2018-03-19T01:08:32.726Z,5.80
2018-03-19T01:09:32.736Z,5.60
2018-03-19T01:10:32.737Z,5.90
2018-03-19T01:11:32.732Z,5.50
2018-03-19T01:12:32.716Z,6.10
2018-03-19T01:13:32.718Z,5.70
2018-03-19T01:14:32.746Z,5.50
2018-03-19T01:15:32.716Z,5.60
2018-03-19T01:16:32.709Z,5.60
2018-03-19T01:17:32.717Z,6.10
2018-03-19T01:18:32.712Z,5.50
2018-03-19T01:19:32.707Z,5.40
2018-03-19T01:20:32.710Z,6.00
2018-03-19T01:21:32.705Z,5.90
2018-03-19T01:22:32.705Z,5.70
2018-03-19T01:23:32.694Z,5.90
2018-03-19T01:24:32.697Z,5.50
2018-03-19T01:25:32.697Z,5.70
2018-03-19T01:26:32.688Z,5.40
2018-03-19T01:27:32.681Z,6.00
2018-03-19T01:28:32.685Z,6.20
2018-03-19T01:29:32.680Z,5.40
2018-03-19T01:30:32.684Z,5.60
2018-03-19T01:31:32.679Z,6.10
2018-03-19T01:32:32.677Z,5.80
2018-03-19T01:33:32.679Z,5.80
2018-03-19T01:34:32.691Z,6.50
2018-03-19T01:35:32.670Z,5.80
2018-03-19T01:36:32.664Z,5.60
2018-03-19T01:37:32.666Z,6.00
2018-03-19T01:38:32.658Z,6.00
2018-03-19T01:39:32.656Z,6.40
2018-03-19T01:40:32.649Z,5.60
2018-03-19T01:41:32.656Z,5.80
2018-03-19T01:42:32.645Z,5.80
2018-03-19T01:43:32.653Z,5.50
2018-03-19T01:44:32.645Z,5.70
2018-03-19T01:45:32.659Z,6.20
2018-03-19T01:46:32.634Z,6.00
2018-03-19T01:47:32.635Z,6.00
2018-03-19T01:48:32.640Z,6.20
2018-03-19T01:49:32.629Z,6.00
2018-03-19T01:50:32.632Z,5.40
2018-03-19T01:51:32.623Z,6.10
2018-03-19T01:52:32.624Z,5.80
2018-03-19T01:53:32.624Z,5.70
2018-03-19T01:54:32.621Z,5.90
2018-03-19T01:55:32.623Z,5.70
2018-03-19T01:56:32.612Z,6.20
2018-03-19T01:57:32.634Z,5.70
2018-03-19T01:58:32.608Z,6.00
2018-03-19T01:59:32.608Z,6.20
2018-03-19T02:00:32.599Z,6.00
2018-03-19T02:01:32.597Z,5.60
2018-03-19T02:02:32.608Z,5.60
2018-03-19T02:03:32.600Z,5.80
2018-03-19T02:04:32.602Z,5.60
2018-03-19T02:05:32.599Z,6.00
2018-03-19T02:06:32.592Z,5.80
2018-03-19T02:07:32.586Z,5.90
2018-03-19T02:08:32.588Z,6.20
2018-03-19T02:09:32.576Z,6.20
2018-03-19T02:10:32.581Z,5.90
2018-03-19T02:11:32.576Z,6.40
2018-03-19T02:12:32.574Z,6.60
2018-03-19T02:13:32.567Z,6.30
2018-03-19T02:14:32.570Z,6.00
2018-03-19T02:15:32.571Z,5.70
2018-03-19T02:16:32.567Z,6.60
2018-03-19T02:17:33.416Z,6.20
2018-03-19T02:18:32.561Z,6.50
2018-03-19T02:19:32.555Z,6.30
2018-03-19T02:20:32.563Z,6.00
2018-03-19T02:21:32.545Z,6.00
2018-03-19T02:22:32.549Z,6.30
2018-03-19T02:23:32.542Z,6.40
2018-03-19T02:24:32.537Z,6.60
2018-03-19T02:25:32.539Z,6.20
2018-03-19T02:26:32.550Z,6.40
2018-03-19T02:27:32.534Z,6.30
2018-03-19T02:28:32.534Z,6.20
2018-03-19T02:29:32.535Z,6.40
2018-03-19T02:30:32.533Z,6.60
2018-03-19T02:31:32.528Z,6.60
2018-03-19T02:32:32.527Z,6.10
2018-03-19T02:33:32.518Z,6.60
2018-03-19T02:34:32.521Z,6.50
2018-03-19T02:35:32.526Z,6.20
2018-03-19T02:36:32.515Z,5.90
2018-03-19T02:37:33.448Z,5.80
2018-03-19T02:38:32.516Z,6.40
2018-03-19T02:39:32.508Z,6.30
2018-03-19T02:40:32.505Z,5.80
2018-03-19T02:41:32.528Z,6.80
2018-03-19T02:42:32.513Z,6.40
2018-03-19T02:43:32.493Z,6.20
2018-03-19T02:44:32.489Z,6.40
2018-03-19T02:45:32.498Z,6.20
2018-03-19T02:46:32.490Z,6.80
2018-03-19T02:47:32.489Z,6.40
2018-03-19T02:48:32.481Z,6.40
2018-03-19T02:49:32.489Z,6.50
2018-03-19T02:50:32.488Z,6.30
2018-03-19T02:51:32.478Z,6.10
2018-03-19T02:52:32.481Z,6.50
2018-03-19T02:53:32.473Z,5.90
2018-03-19T02:54:32.463Z,6.20
2018-03-19T02:55:32.466Z,6.70
2018-03-19T02:56:32.467Z,6.40
2018-03-19T02:57:32.459Z,6.30
2018-03-19T02:58:32.456Z,6.50
2018-03-19T02:59:32.457Z,7.20
2018-03-19T03:00:32.446Z,6.50
2018-03-19T03:01:32.442Z,6.10
2018-03-19T03:02:32.445Z,6.10
2018-03-19T03:03:32.445Z,6.40
2018-03-19T03:04:32.443Z,6.30
2018-03-19T03:05:32.453Z,6.40
2018-03-19T03:06:32.565Z,6.00
2018-03-19T03:07:32.435Z,6.20
2018-03-19T03:08:32.426Z,6.30
2018-03-19T03:09:32.423Z,6.50
2018-03-19T03:10:32.423Z,6.10
2018-03-19T03:11:32.423Z,6.10
2018-03-19T03:12:32.429Z,6.40
2018-03-19T03:13:32.413Z,6.10
2018-03-19T03:14:32.415Z,6.10
2018-03-19T03:15:32.413Z,6.50
2018-03-19T03:16:32.914Z,6.20
2018-03-19T03:17:32.424Z,6.40
2018-03-19T03:18:32.406Z,6.10
2018-03-19T03:19:32.395Z,6.80
2018-03-19T03:20:32.395Z,6.90
2018-03-19T03:21:32.397Z,6.40
2018-03-19T03:22:32.390Z,5.80
2018-03-19T03:23:32.386Z,6.70
2018-03-19T03:24:32.381Z,6.70
2018-03-19T03:25:32.407Z,6.40
2018-03-19T03:26:32.390Z,7.00
2018-03-19T03:27:32.917Z,6.50
2018-03-19T03:28:32.374Z,6.10
2018-03-19T03:29:32.377Z,6.50
2018-03-19T03:30:32.369Z,6.50
2018-03-19T03:31:32.364Z,6.20
2018-03-19T03:32:32.366Z,6.60
2018-03-19T03:33:32.356Z,6.30
2018-03-19T03:34:32.357Z,6.60
2018-03-19T03:35:32.348Z,6.40
2018-03-19T03:36:32.351Z,6.70
2018-03-19T03:37:32.349Z,6.30
2018-03-19T03:38:32.359Z,6.40
2018-03-19T03:39:32.341Z,6.50
2018-03-19T03:40:32.342Z,6.40
2018-03-19T03:41:32.337Z,6.60
2018-03-19T03:42:32.333Z,6.20
2018-03-19T03:43:32.332Z,6.20
2018-03-19T03:44:32.330Z,6.20
2018-03-19T03:45:32.326Z,6.40
2018-03-19T03:46:32.318Z,6.50
2018-03-19T03:47:32.318Z,6.20
2018-03-19T03:48:32.319Z,6.60
2018-03-19T03:49:32.359Z,6.00
2018-03-19T03:50:32.305Z,6.50
2018-03-19T03:51:32.313Z,5.90
2018-03-19T03:52:32.325Z,5.90
2018-03-19T03:53:32.305Z,6.40
2018-03-19T03:54:32.293Z,6.10
2018-03-19T03:55:32.309Z,6.70
2018-03-19T03:56:32.292Z,6.40
2018-03-19T03:57:32.286Z,6.40
2018-03-19T03:58:32.287Z,6.00
2018-03-19T03:59:32.301Z,6.30
2018-03-19T04:00:32.274Z,6.60
2018-03-19T04:01:32.275Z,6.40
2018-03-19T04:02:32.274Z,5.90
2018-03-19T04:03:32.268Z,6.40
2018-03-19T04:04:32.276Z,6.60
2018-03-19T04:05:32.266Z,6.40
2018-03-19T04:06:32.258Z,6.40
2018-03-19T04:07:32.261Z,6.20
2018-03-19T04:08:32.259Z,6.00
2018-03-19T04:09:32.254Z,6.20
2018-03-19T04:10:32.261Z,5.80
2018-03-19T04:11:32.244Z,6.20
2018-03-19T04:12:32.249Z,6.60
2018-03-19T04:13:32.246Z,6.70
2018-03-19T04:14:32.248Z,6.30
2018-03-19T04:15:32.232Z,6.50
2018-03-19T04:16:32.235Z,6.10
2018-03-19T04:17:32.227Z,6.20
2018-03-19T04:18:32.222Z,6.00
2018-03-19T04:19:32.227Z,6.00
2018-03-19T04:20:32.226Z,6.50
2018-03-19T04:21:32.231Z,6.70
2018-03-19T04:22:32.213Z,6.30
2018-03-19T04:23:32.214Z,5.90
2018-03-19T04:24:32.205Z,6.40
2018-03-19T04:25:32.217Z,6.30
2018-03-19T04:26:32.200Z,6.40
2018-03-19T04:27:32.196Z,7.00
2018-03-19T04:28:32.196Z,6.80
2018-03-19T04:29:32.192Z,6.60
2018-03-19T04:30:32.197Z,6.20
2018-03-19T04:31:32.185Z,6.60
2018-03-19T04:32:32.193Z,6.20
2018-03-19T04:33:32.177Z,6.40
2018-03-19T04:34:32.172Z,6.30
2018-03-19T04:35:32.172Z,6.20
2018-03-19T04:36:32.167Z,7.00
2018-03-19T04:37:32.164Z,6.90
2018-03-19T04:38:32.164Z,6.70
2018-03-19T04:39:32.157Z,6.30
2018-03-19T04:40:32.159Z,6.80
2018-03-19T04:41:32.156Z,6.60
2018-03-19T04:42:32.155Z,6.70
2018-03-19T04:43:32.149Z,7.00
2018-03-19T04:44:32.142Z,6.40
2018-03-19T04:45:32.137Z,6.50
2018-03-19T04:46:32.137Z,6.60
2018-03-19T04:47:32.132Z,6.80
2018-03-19T04:48:32.133Z,7.00
2018-03-19T04:49:32.126Z,7.00
2018-03-19T04:50:32.126Z,6.60
2018-03-19T04:51:32.127Z,6.80
2018-03-19T04:52:32.118Z,7.20
2018-03-19T04:53:32.118Z,7.10
2018-03-19T04:54:32.111Z,6.80
2018-03-19T04:55:32.115Z,6.50
2018-03-19T04:56:32.104Z,6.90
2018-03-19T04:57:32.104Z,7.10
2018-03-19T04:58:32.096Z,7.30
2018-03-19T04:59:32.096Z,6.80
2018-03-19T05:00:32.096Z,7.40
2018-03-19T05:01:32.096Z,7.20
2018-03-19T05:02:32.092Z,6.50
2018-03-19T05:03:32.093Z,6.40
2018-03-19T05:04:32.081Z,6.70
2018-03-19T05:05:32.080Z,6.80
2018-03-19T05:06:32.076Z,7.00
2018-03-19T05:07:32.069Z,7.20
2018-03-19T05:08:32.072Z,7.20
2018-03-19T05:09:32.068Z,6.40
2018-03-19T05:10:32.057Z,6.90
2018-03-19T05:11:32.058Z,6.40
2018-03-19T05:12:32.056Z,6.50
2018-03-19T05:13:32.055Z,6.90
2018-03-19T05:14:32.062Z,6.40
2018-03-19T05:15:32.055Z,6.70
2018-03-19T05:16:32.043Z,7.20
2018-03-19T05:17:32.045Z,6.70
2018-03-19T05:18:32.038Z,6.70
2018-03-19T05:19:32.036Z,6.50
2018-03-19T05:20:32.032Z,7.20
2018-03-19T05:21:32.038Z,7.30
2018-03-19T05:22:32.021Z,6.90
2018-03-19T05:23:32.023Z,6.80
2018-03-19T05:24:32.016Z,6.70
2018-03-19T05:25:32.024Z,7.00
2018-03-19T05:26:32.005Z,7.00
2018-03-19T05:27:32.008Z,6.70
2018-03-19T05:28:32.008Z,6.70
2018-03-19T05:29:32.005Z,6.80
2018-03-19T05:30:32.043Z,7.40
2018-03-19T05:31:32.015Z,7.10
2018-03-19T05:32:31.989Z,6.90
2018-03-19T05:33:32.386Z,6.40
2018-03-19T05:34:31.983Z,7.50
2018-03-19T05:35:31.994Z,7.30
2018-03-19T05:36:32.011Z,7.00
2018-03-19T05:37:31.974Z,6.40
2018-03-19T05:39:24.973Z,7.00
2018-03-19T05:40:24.958Z,6.50
2018-03-19T05:42:17.946Z,7.20
2018-03-19T05:43:17.917Z,6.60
2018-03-19T05:44:17.925Z,6.80
2018-03-19T05:45:17.898Z,6.50
2018-03-19T05:46:17.905Z,7.30
2018-03-19T05:47:19.634Z,6.50
2018-03-19T05:48:19.684Z,6.60
2018-03-19T05:49:21.650Z,6.10
2018-03-19T05:50:20.662Z,6.60
2018-03-19T05:51:19.713Z,6.60
2018-03-19T05:52:18.940Z,7.00
2018-03-19T05:53:17.860Z,7.00
2018-03-19T05:54:17.863Z,6.80
2018-03-19T05:55:17.889Z,7.10
2018-03-19T05:56:17.844Z,7.30
2018-03-19T05:57:17.855Z,6.70
2018-03-19T05:58:17.862Z,6.80
2018-03-19T05:59:17.888Z,7.00
2018-03-19T06:00:20.378Z,6.80
2018-03-19T06:01:17.864Z,7.30
2018-03-19T06:02:17.832Z,6.70
2018-03-19T06:03:17.838Z,7.20
2018-03-19T06:04:17.828Z,7.80
2018-03-19T06:05:17.831Z,7.40
2018-03-19T06:06:17.814Z,6.70
2018-03-19T06:07:17.814Z,7.00
2018-03-19T06:08:17.811Z,7.20
2018-03-19T06:09:17.815Z,6.70
2018-03-19T06:10:17.816Z,7.10
2018-03-19T06:11:17.803Z,7.10
2018-03-19T06:12:17.811Z,7.50
2018-03-19T06:13:17.828Z,7.10
2018-03-19T06:14:17.802Z,6.70
2018-03-19T06:15:17.784Z,7.00
2018-03-19T06:16:17.788Z,6.60
2018-03-19T06:17:17.857Z,7.10
2018-03-19T06:18:17.780Z,6.70
2018-03-19T06:19:17.780Z,7.20
2018-03-19T06:20:17.846Z,7.10
2018-03-19T06:21:17.793Z,7.30
2018-03-19T06:22:17.806Z,6.60
2018-03-19T06:23:17.866Z,7.40
2018-03-19T06:24:21.393Z,7.20
2018-03-19T06:25:17.814Z,6.50
2018-03-19T06:26:17.811Z,6.70
2018-03-19T06:27:20.379Z,6.40
2018-03-19T06:28:17.853Z,7.10
2018-03-19T06:29:17.756Z,6.70
2018-03-19T06:30:17.828Z,7.30
2018-03-19T06:31:17.764Z,6.80
2018-03-19T06:32:17.906Z,7.40
2018-03-19T06:33:17.805Z,8.10
2018-03-19T06:34:19.400Z,6.80
2018-03-19T06:35:17.783Z,6.50
2018-03-19T06:36:17.803Z,7.00
2018-03-19T06:37:17.752Z,7.30
2018-03-19T06:38:20.386Z,7.20
2018-03-19T06:39:20.430Z,7.20
2018-03-19T06:40:17.734Z,6.40
2018-03-19T06:41:26.372Z,6.70
2018-03-19T06:43:10.800Z,6.70
2018-03-19T06:44:11.705Z,7.10
2018-03-19T06:46:03.778Z,6.90
2018-03-19T06:47:03.683Z,7.30
2018-03-19T06:48:56.906Z,7.40
2018-03-19T06:49:56.613Z,6.80
2018-03-19T06:51:50.007Z,7.20
2018-03-19T06:52:49.667Z,7.40
2018-03-19T06:54:43.709Z,6.80
2018-03-19T06:55:43.889Z,6.70
2018-03-19T06:57:35.551Z,7.10
2018-03-19T06:58:35.700Z,7.10
2018-03-19T07:00:29.001Z,7.80
2018-03-19T07:01:28.521Z,6.70
2018-03-19T07:03:22.664Z,7.40
2018-03-19T07:04:21.441Z,6.80
2018-03-19T07:06:14.985Z,7.30
2018-03-19T07:07:15.382Z,6.50
2018-03-19T07:09:07.309Z,6.70
2018-03-19T07:10:07.292Z,6.80
2018-03-19T07:12:00.283Z,7.10
2018-03-19T07:13:00.252Z,6.30
2018-03-19T07:14:53.706Z,6.90
2018-03-19T07:15:53.214Z,6.60
2018-03-19T07:17:46.195Z,7.20
2018-03-19T07:18:46.191Z,6.50
2018-03-19T07:20:39.202Z,6.80
2018-03-19T07:21:40.372Z,6.50
2018-03-19T07:23:32.153Z,6.70
2018-03-19T07:24:32.100Z,6.90
2018-03-19T07:26:25.070Z,6.80
2018-03-19T07:27:25.044Z,7.30
2018-03-19T07:29:18.004Z,6.60
2018-03-19T07:30:18.012Z,7.40
2018-03-19T07:32:10.988Z,7.10
2018-03-19T07:33:10.965Z,6.90
2018-03-19T07:35:03.916Z,7.30
2018-03-19T07:36:03.921Z,7.10
2018-03-19T07:37:56.902Z,6.80
2018-03-19T07:38:56.893Z,7.10
2018-03-19T07:40:49.847Z,6.50
2018-03-19T07:41:49.913Z,6.70
2018-03-19T07:43:51.859Z,7.10
2018-03-19T07:44:45.780Z,6.80
2018-03-19T07:46:36.276Z,6.60
2018-03-19T07:47:36.272Z,6.70
2018-03-19T07:49:29.218Z,6.50
2018-03-19T07:50:29.230Z,6.60
2018-03-19T07:52:22.195Z,6.60
2018-03-19T07:53:22.180Z,6.80
2018-03-19T07:55:15.144Z,7.10
2018-03-19T07:56:15.127Z,6.60
2018-03-19T07:58:09.347Z,7.40
2018-03-19T07:59:09.314Z,6.60
2018-03-19T08:01:03.107Z,7.40
2018-03-19T08:02:03.164Z,6.50
2018-03-19T08:03:03.204Z,6.60
2018-03-19T08:04:03.106Z,6.60
2018-03-19T08:05:03.320Z,6.90
2018-03-19T08:06:03.132Z,6.70
2018-03-19T08:07:03.124Z,6.70
2018-03-19T08:08:03.130Z,6.90
2018-03-19T08:09:03.136Z,6.60
2018-03-19T08:10:03.154Z,6.20
2018-03-19T08:11:03.144Z,6.40
2018-03-19T08:12:03.166Z,6.50
2018-03-19T08:13:03.163Z,7.00
2018-03-19T08:14:03.171Z,7.20
2018-03-19T08:15:03.174Z,7.00
2018-03-19T08:16:03.184Z,7.50
2018-03-19T08:17:03.198Z,6.80
2018-03-19T08:18:03.198Z,6.80
2018-03-19T08:19:03.197Z,6.40
2018-03-19T08:20:03.210Z,6.70
2018-03-19T08:21:03.217Z,7.10
2018-03-19T08:22:03.237Z,6.70
2018-03-19T08:23:03.228Z,6.40
2018-03-19T08:24:56.252Z,6.70
2018-03-19T08:25:56.271Z,5.80
2018-03-19T08:27:49.199Z,6.20
2018-03-19T08:28:49.189Z,6.30
2018-03-19T08:30:42.152Z,6.40
2018-03-19T08:31:42.159Z,6.20
2018-03-19T08:33:35.094Z,5.90
2018-03-19T08:34:35.121Z,6.10
2018-03-19T08:36:28.067Z,6.30
2018-03-19T08:37:28.069Z,5.70
2018-03-19T08:39:21.017Z,6.00
2018-03-19T08:40:21.024Z,6.60
2018-03-19T08:41:21.025Z,6.30
2018-03-19T08:43:14.984Z,6.40
2018-03-19T08:44:13.982Z,6.60
2018-03-19T08:46:06.949Z,6.10
2018-03-19T08:47:06.947Z,6.00
2018-03-19T08:48:59.894Z,6.80
2018-03-19T08:49:59.892Z,6.40
2018-03-19T08:51:53.479Z,6.00
2018-03-19T08:52:53.379Z,6.10
2018-03-19T08:54:46.414Z,6.20
2018-03-19T08:55:46.335Z,6.00
2018-03-19T08:57:39.363Z,5.40
2018-03-19T08:58:39.274Z,6.10
2018-03-19T09:00:32.221Z,6.30
2018-03-19T09:01:32.227Z,6.00
2018-03-19T09:03:25.217Z,5.80
2018-03-19T09:04:25.225Z,6.50
2018-03-19T09:06:18.182Z,6.10
2018-03-19T09:07:18.246Z,6.80
2018-03-19T09:09:11.105Z,5.90
2018-03-19T09:10:11.115Z,6.00
2018-03-19T09:12:04.277Z,5.90
2018-03-19T09:13:04.057Z,5.80
2018-03-19T09:14:57.062Z,5.80
2018-03-19T09:15:57.022Z,6.20
2018-03-19T09:17:50.046Z,6.20
2018-03-19T09:18:50.007Z,5.90
2018-03-19T09:20:43.104Z,5.70
2018-03-19T09:21:43.059Z,6.30
2018-03-19T09:23:35.961Z,6.10
2018-03-19T09:24:35.877Z,6.10
2018-03-19T09:26:28.849Z,5.80
2018-03-19T09:27:28.845Z,6.40
2018-03-19T09:29:21.790Z,5.80
2018-03-19T09:30:21.804Z,6.00
2018-03-19T09:32:15.068Z,6.30
2018-03-19T09:33:14.757Z,6.40
2018-03-19T09:35:07.742Z,5.90
2018-03-19T09:36:07.730Z,6.00
2018-03-19T09:38:00.686Z,5.80
2018-03-19T09:39:00.681Z,5.80
2018-03-19T09:40:53.659Z,6.20
2018-03-19T09:41:53.635Z,5.80
2018-03-19T09:43:46.576Z,5.90
2018-03-19T09:44:46.605Z,5.90
2018-03-19T09:46:39.595Z,6.50
2018-03-19T09:47:39.541Z,7.60
2018-03-19T09:48:39.548Z,6.40
2018-03-19T09:49:39.565Z,5.90
2018-03-19T09:50:39.620Z,5.50
2018-03-19T09:51:39.595Z,5.90
2018-03-19T09:52:39.617Z,7.70
2018-03-19T09:53:39.604Z,6.00
2018-03-19T09:54:39.972Z,6.00
2018-03-19T09:55:39.632Z,6.10
2018-03-19T09:56:39.641Z,5.80
2018-03-19T09:57:39.653Z,5.80
2018-03-19T09:58:39.655Z,6.00
2018-03-19T09:59:39.672Z,6.40
2018-03-19T10:00:39.678Z,6.40
2018-03-19T10:01:39.680Z,6.20
2018-03-19T10:02:39.740Z,6.40
2018-03-19T10:03:39.746Z,5.90
2018-03-19T10:04:39.736Z,6.20
2018-03-19T10:05:39.735Z,6.50
2018-03-19T10:06:39.748Z,6.30
2018-03-19T10:07:39.757Z,6.00
2018-03-19T10:08:39.816Z,6.00
2018-03-19T10:09:39.776Z,5.80
2018-03-19T10:10:39.800Z,5.90
2018-03-19T10:11:39.810Z,5.90
2018-03-19T10:12:39.809Z,5.70
2018-03-19T10:13:39.816Z,6.00
2018-03-19T10:14:39.835Z,6.70
2018-03-19T10:15:39.848Z,5.70
2018-03-19T10:16:39.874Z,6.20
2018-03-19T10:17:39.870Z,6.30
2018-03-19T10:18:39.876Z,6.50
2018-03-19T10:19:39.887Z,5.50
2018-03-19T10:20:39.895Z,6.20
2018-03-19T10:21:39.927Z,6.20
2018-03-19T10:22:39.914Z,5.90
2018-03-19T10:23:39.931Z,6.20
2018-03-19T10:24:39.931Z,5.80
2018-03-19T10:25:40.025Z,5.60
2018-03-19T10:26:39.964Z,5.50
2018-03-19T10:27:39.976Z,5.50
2018-03-19T10:28:39.985Z,5.80
2018-03-19T10:29:39.987Z,5.70
2018-03-19T10:30:40.000Z,6.30
2018-03-19T10:31:40.015Z,6.30
2018-03-19T10:32:40.017Z,6.10
2018-03-19T10:33:40.023Z,6.30
2018-03-19T10:34:40.033Z,5.90
2018-03-19T10:35:40.051Z,6.10
2018-03-19T10:36:40.198Z,5.50
2018-03-19T10:37:40.088Z,5.50
2018-03-19T10:38:40.147Z,5.80
2018-03-19T10:39:40.114Z,5.60
2018-03-19T10:40:40.105Z,6.00
2018-03-19T10:41:40.165Z,6.60
2018-03-19T10:42:40.128Z,6.00
2018-03-19T10:43:40.175Z,6.30
2018-03-19T10:44:40.154Z,6.20
2018-03-19T10:45:40.182Z,5.20
2018-03-19T10:46:40.192Z,5.70
2018-03-19T10:47:40.173Z,5.50
2018-03-19T10:48:40.256Z,5.40
2018-03-19T10:49:40.242Z,5.50
2018-03-19T10:50:40.204Z,6.20
2018-03-19T10:51:40.209Z,5.40
2018-03-19T10:52:40.229Z,5.30
2018-03-19T10:53:40.231Z,5.40
2018-03-19T10:54:40.240Z,5.80
2018-03-19T10:55:40.246Z,5.40
2018-03-19T10:56:40.263Z,5.50
2018-03-19T10:57:40.289Z,5.50
2018-03-19T10:58:40.276Z,5.50
2018-03-19T10:59:40.283Z,5.60
2018-03-19T11:00:40.292Z,5.40
2018-03-19T11:01:40.312Z,5.80
2018-03-19T11:02:40.307Z,5.50
2018-03-19T11:03:40.381Z,5.50
2018-03-19T11:04:40.338Z,5.30
2018-03-19T11:05:40.343Z,5.00
2018-03-19T11:06:40.358Z,5.60
2018-03-19T11:07:40.436Z,5.40
2018-03-19T11:08:40.374Z,5.50
2018-03-19T11:09:40.376Z,5.40
2018-03-19T11:10:40.395Z,5.50
2018-03-19T11:11:40.393Z,5.50
2018-03-19T11:12:40.494Z,5.60
2018-03-19T11:13:40.414Z,5.90
2018-03-19T11:14:40.417Z,5.60
2018-03-19T11:15:40.430Z,5.80
2018-03-19T11:16:40.497Z,5.30
2018-03-19T11:17:40.508Z,5.40
2018-03-19T11:18:40.655Z,5.00
2018-03-19T11:19:40.544Z,5.40
2018-03-19T11:20:40.558Z,10.40
2018-03-19T11:21:40.551Z,5.70
2018-03-19T11:22:40.509Z,5.50
2018-03-19T11:23:40.507Z,5.60
2018-03-19T11:24:40.515Z,5.60
2018-03-19T11:25:40.518Z,5.70
2018-03-19T11:26:40.530Z,5.50
2018-03-19T11:27:40.535Z,5.30
2018-03-19T11:28:40.562Z,5.00
2018-03-19T11:29:40.549Z,5.10
2018-03-19T11:30:40.560Z,4.90
2018-03-19T11:31:40.580Z,5.30
2018-03-19T11:32:40.577Z,5.50
2018-03-19T11:33:40.576Z,5.90
2018-03-19T11:34:40.580Z,5.90
2018-03-19T11:35:40.642Z,5.30
2018-03-19T11:36:40.621Z,5.90
2018-03-19T11:37:40.609Z,5.40
2018-03-19T11:38:40.714Z,5.70
2018-03-19T11:39:40.635Z,6.00
2018-03-19T11:40:40.639Z,6.00
2018-03-19T11:41:40.645Z,6.30
2018-03-19T11:42:40.646Z,5.90
2018-03-19T11:43:40.651Z,5.50
2018-03-19T11:44:40.656Z,5.60
2018-03-19T11:45:40.672Z,5.20
2018-03-19T11:46:40.673Z,5.60
2018-03-19T11:47:40.677Z,5.70
2018-03-19T11:48:40.685Z,5.70
2018-03-19T11:49:40.720Z,5.20
2018-03-19T11:50:40.718Z,5.60
2018-03-19T11:51:40.804Z,5.60
2018-03-19T11:52:40.717Z,5.80
2018-03-19T11:53:40.994Z,5.40
2018-03-19T11:54:40.725Z,5.30
2018-03-19T11:55:40.734Z,5.40
2018-03-19T11:56:40.740Z,5.20
2018-03-19T11:57:40.746Z,5.70
2018-03-19T11:58:40.765Z,5.80
2018-03-19T11:59:40.774Z,5.40
2018-03-19T12:00:40.778Z,5.60
2018-03-19T12:01:40.771Z,6.10
2018-03-19T12:02:40.792Z,5.40
2018-03-19T12:03:41.036Z,6.60
2018-03-19T12:04:40.980Z,7.20
2018-03-19T12:05:40.802Z,6.00
2018-03-19T12:06:40.802Z,5.10
2018-03-19T12:07:40.809Z,5.20
2018-03-19T12:08:40.826Z,5.80
2018-03-19T12:09:40.826Z,5.70
2018-03-19T12:10:40.837Z,6.00
2018-03-19T12:11:40.832Z,5.40
2018-03-19T12:12:40.849Z,6.00
2018-03-19T12:13:40.848Z,5.40
2018-03-19T12:14:41.003Z,5.40
2018-03-19T12:15:40.865Z,6.10
2018-03-19T12:16:40.867Z,5.80
2018-03-19T12:17:40.874Z,5.90
2018-03-19T12:18:40.887Z,5.90
2018-03-19T12:19:40.888Z,5.30
2018-03-19T12:20:40.883Z,5.90
2018-03-19T12:21:40.916Z,5.70
2018-03-19T12:22:40.888Z,5.30
2018-03-19T12:23:40.904Z,6.10
2018-03-19T12:24:40.897Z,6.00
2018-03-19T12:25:40.905Z,6.00
2018-03-19T12:26:40.925Z,6.10
2018-03-19T12:27:40.946Z,5.60
2018-03-19T12:28:40.920Z,6.50
2018-03-19T12:29:40.908Z,5.60
2018-03-19T12:30:40.916Z,6.20
2018-03-19T12:31:40.912Z,5.60
2018-03-19T12:32:40.938Z,6.10
2018-03-19T12:33:40.936Z,6.10
2018-03-19T12:34:40.938Z,6.20
2018-03-19T12:35:40.941Z,6.00
2018-03-19T12:36:40.946Z,6.00
2018-03-19T12:37:40.940Z,6.30
2018-03-19T12:38:40.936Z,6.10
2018-03-19T12:39:40.976Z,6.10
2018-03-19T12:40:40.943Z,6.00
2018-03-19T12:41:40.944Z,6.40
2018-03-19T12:42:40.947Z,6.10
2018-03-19T12:44:33.968Z,6.80
2018-03-19T12:45:33.961Z,5.80
2018-03-19T12:47:26.927Z,6.50
2018-03-19T12:48:26.890Z,5.80
2018-03-19T12:50:19.871Z,6.30
2018-03-19T12:51:19.852Z,6.00
2018-03-19T12:53:12.825Z,6.20
2018-03-19T12:54:12.835Z,5.80
2018-03-19T12:56:05.791Z,6.10
2018-03-19T12:57:05.779Z,5.70
2018-03-19T12:58:58.739Z,6.70
2018-03-19T12:59:58.752Z,6.20
2018-03-19T13:01:52.262Z,5.60
2018-03-19T13:02:51.674Z,6.20
2018-03-19T13:03:51.669Z,6.40
2018-03-19T13:04:51.681Z,6.40
2018-03-19T13:05:51.680Z,6.60
2018-03-19T13:06:51.680Z,5.40
2018-03-19T13:07:51.680Z,5.80
2018-03-19T13:08:51.688Z,5.50
2018-03-19T13:09:51.693Z,5.70
2018-03-19T13:10:51.724Z,5.60
2018-03-19T13:11:51.715Z,5.20
2018-03-19T13:12:51.690Z,5.30
2018-03-19T13:13:51.699Z,6.10
2018-03-19T13:14:51.686Z,5.70
2018-03-19T13:15:51.706Z,5.60
2018-03-19T13:16:51.690Z,5.90
2018-03-19T13:17:51.737Z,6.00
2018-03-19T13:18:51.738Z,6.40
2018-03-19T13:19:51.721Z,6.60
2018-03-19T13:20:51.721Z,6.20
2018-03-19T13:21:51.714Z,6.50
2018-03-19T13:22:51.712Z,6.80
2018-03-19T13:23:51.741Z,6.70
2018-03-19T13:24:51.738Z,6.30
2018-03-19T13:25:51.754Z,6.20
2018-03-19T13:26:51.716Z,6.40
2018-03-19T13:27:51.718Z,6.60
2018-03-19T13:28:51.712Z,6.40
2018-03-19T13:29:51.728Z,6.50
2018-03-19T13:31:44.703Z,6.40
2018-03-19T13:32:44.673Z,6.30
2018-03-19T13:34:37.604Z,6.70
2018-03-19T13:35:37.583Z,6.30
2018-03-19T13:37:30.573Z,7.00
2018-03-19T13:38:30.586Z,6.40
2018-03-19T13:40:23.523Z,6.10
2018-03-19T13:41:23.530Z,5.50
2018-03-19T13:43:16.547Z,6.20
2018-03-19T13:44:16.481Z,6.20
2018-03-19T13:46:09.456Z,6.00
2018-03-19T13:47:09.422Z,5.70
2018-03-19T13:49:02.471Z,6.00
2018-03-19T13:50:02.473Z,6.40
2018-03-19T13:51:55.548Z,5.70
2018-03-19T13:52:55.531Z,5.50
2018-03-19T13:54:48.510Z,5.60
2018-03-19T13:55:48.509Z,5.60
2018-03-19T13:57:41.463Z,5.90
2018-03-19T13:58:41.445Z,5.70
2018-03-19T13:59:41.440Z,5.70
2018-03-19T14:00:41.444Z,5.30
2018-03-19T14:01:41.479Z,5.50
2018-03-19T14:02:41.454Z,5.30
2018-03-19T14:03:41.451Z,5.20
2018-03-19T14:04:41.454Z,5.50
2018-03-19T14:05:41.494Z,5.20
2018-03-19T14:06:41.460Z,5.20
2018-03-19T14:07:41.467Z,6.00
2018-03-19T14:08:41.474Z,5.70
2018-03-19T14:09:41.455Z,5.60
2018-03-19T14:10:41.463Z,5.40
2018-03-19T14:11:41.467Z,5.80
2018-03-19T14:12:41.460Z,5.20
2018-03-19T14:13:41.468Z,5.70
2018-03-19T14:14:41.469Z,5.40
2018-03-19T14:15:41.466Z,5.40
2018-03-19T14:16:41.466Z,5.20
2018-03-19T14:17:41.471Z,5.40
2018-03-19T14:18:41.485Z,5.30
2018-03-19T14:19:41.475Z,5.50
2018-03-19T14:20:41.475Z,5.30
2018-03-19T14:21:41.488Z,5.40
2018-03-19T14:22:41.473Z,5.40
2018-03-19T14:23:41.477Z,4.90
2018-03-19T14:24:41.495Z,4.60
2018-03-19T14:25:41.490Z,5.40